Time;durP1;ratioP1;P1;durP2;ratioP2;P2;SDS_P1;SDS_P2;PMS_P1;PMS_P2;Temp;Humidity;BMP_temperature;BMP_pressure;BME280_temperature;BME280_humidity;BME280_pressure;Samples;Min_cycle;Max_cycle;Signal;HPM_P1;HPM_P2
2022/06/16 00:02:13;;;;;;;2.88;2.70;;;;;;;;;;5043751;28;20672;-64
2022/06/16 00:04:45;;;;;;;3.38;3.20;;;;;;;;;;5047253;28;20207;-62
2022/06/16 00:07:12;;;;;;;3.47;3.22;;;;;;;;;;5047460;28;20745;-63
2022/06/16 00:09:39;;;;;;;3.00;2.80;;;;;;;;;;5043947;28;20250;-63
2022/06/16 00:12:07;;;;;;;3.15;2.92;;;;;;;;;;5028997;28;20273;-63
2022/06/16 00:14:34;;;;;;;3.00;2.80;;;;;;;;;;5037235;28;20215;-63
2022/06/16 00:17:02;;;;;;;2.97;2.78;;;;;;;;;;5027687;28;20208;-63
2022/06/16 00:19:29;;;;;;;2.10;2.10;;;;;;;;;;5046566;28;20344;-62
2022/06/16 00:21:56;;;;;;;2.45;2.45;;;;;;;;;;5046730;28;20208;-63
2022/06/16 00:24:26;;;;;;;2.80;2.60;;;;;;;;;;5047311;28;20208;-63
2022/06/16 00:26:53;;;;;;;2.80;2.70;;;;;;;;;;5046818;28;20684;-62
2022/06/16 00:29:20;;;;;;;2.60;2.60;;;;;;;;;;5046699;28;20681;-62
2022/06/16 00:31:47;;;;;;;2.50;2.45;;;;;;;;;;5047035;28;20224;-63
2022/06/16 00:34:16;;;;;;;2.80;2.70;;;;;;;;;;5046455;28;20207;-62
2022/06/16 00:36:43;;;;;;;2.53;2.50;;;;;;;;;;5043401;28;20208;-63
2022/06/16 00:39:10;;;;;;;2.30;2.20;;;;;;;;;;5047541;28;20249;-63
2022/06/16 00:41:37;;;;;;;2.88;2.78;;;;;;;;;;5047629;28;20210;-63
2022/06/16 00:44:14;;;;;;;2.67;2.45;;;;;;;;;;5047424;28;20257;-63
2022/06/16 00:46:41;;;;;;;2.80;2.60;;;;;;;;;;5047262;28;20257;-63
2022/06/16 00:49:11;;;;;;;3.33;3.03;;;;;;;;;;5047017;28;20281;-63
2022/06/16 00:51:41;;;;;;;3.05;2.85;;;;;;;;;;5047174;28;20247;-63
2022/06/16 00:54:10;;;;;;;3.97;2.88;;;;;;;;;;5047315;28;20238;-63
2022/06/16 00:56:37;;;;;;;2.83;2.72;;;;;;;;;;5047263;28;20289;-63
2022/06/16 00:59:05;;;;;;;3.42;3.10;;;;;;;;;;5046785;28;20277;-63
2022/06/16 01:01:33;;;;;;;2.95;2.63;;;;;;;;;;5047280;28;21014;-63
2022/06/16 01:06:46;;;;;;;2.72;2.63;;;;;;;;;;5047187;28;20976;-63
2022/06/16 01:09:14;;;;;;;2.97;2.88;;;;;;;;;;5046658;28;20208;-63
2022/06/16 01:14:42;;;;;;;3.10;2.90;;;;;;;;;;5039275;28;20207;-63
2022/06/16 01:17:13;;;;;;;3.28;3.17;;;;;;;;;;5047179;28;20520;-63
2022/06/16 01:19:51;;;;;;;3.22;3.10;;;;;;;;;;5046171;28;20258;-63
2022/06/16 01:22:27;;;;;;;5.07;2.92;;;;;;;;;;5046749;28;20265;-63
2022/06/16 01:24:59;;;;;;;3.10;3.00;;;;;;;;;;5046495;28;20223;-63
2022/06/16 01:27:47;;;;;;;3.58;3.38;;;;;;;;;;5047957;28;20266;-63
2022/06/16 01:30:16;;;;;;;3.42;3.22;;;;;;;;;;5042781;28;20223;-63
2022/06/16 01:32:48;;;;;;;4.50;4.10;;;;;;;;;;5050734;28;20700;-63
2022/06/16 01:35:18;;;;;;;4.53;4.10;;;;;;;;;;5050048;28;20212;-63
2022/06/16 01:37:55;;;;;;;3.85;3.60;;;;;;;;;;5050586;28;20238;-63
2022/06/16 01:40:26;;;;;;;4.15;3.92;;;;;;;;;;5049958;28;20230;-63
2022/06/16 01:42:55;;;;;;;4.97;4.45;;;;;;;;;;5050122;28;20218;-63
2022/06/16 01:45:27;;;;;;;4.32;4.03;;;;;;;;;;5050426;28;20211;-62
2022/06/16 01:47:54;;;;;;;4.38;4.07;;;;;;;;;;5049721;28;20200;-63
2022/06/16 01:50:23;;;;;;;4.60;4.20;;;;;;;;;;5050074;28;20207;-62
2022/06/16 01:52:53;;;;;;;5.68;3.90;;;;;;;;;;5050010;28;20281;-63
2022/06/16 01:55:22;;;;;;;6.93;4.00;;;;;;;;;;5047305;28;20231;-63
2022/06/16 01:57:53;;;;;;;4.63;4.25;;;;;;;;;;5047590;28;20237;-63
2022/06/16 02:00:22;;;;;;;4.38;4.03;;;;;;;;;;5041365;28;20828;-63
2022/06/16 02:02:54;;;;;;;3.92;3.63;;;;;;;;;;5044998;28;20211;-63
2022/06/16 02:05:24;;;;;;;3.90;3.70;;;;;;;;;;5046432;28;20204;-64
2022/06/16 02:07:53;;;;;;;4.15;3.95;;;;;;;;;;5048053;28;20219;-63
2022/06/16 02:10:24;;;;;;;3.75;3.42;;;;;;;;;;5038633;28;20235;-63
2022/06/16 02:12:58;;;;;;;4.30;3.97;;;;;;;;;;5048786;28;20548;-63
2022/06/16 02:15:38;;;;;;;4.75;4.07;;;;;;;;;;5050051;28;20212;-63
2022/06/16 02:18:08;;;;;;;5.68;3.50;;;;;;;;;;5048215;28;20589;-63
2022/06/16 02:20:39;;;;;;;3.97;3.78;;;;;;;;;;5049405;28;20763;-63
2022/06/16 02:23:07;;;;;;;3.70;3.45;;;;;;;;;;5049505;28;20211;-63
2022/06/16 02:25:34;;;;;;;3.45;3.33;;;;;;;;;;5049004;28;20211;-62
2022/06/16 02:28:01;;;;;;;4.20;3.90;;;;;;;;;;5036320;28;20221;-63
2022/06/16 02:30:29;;;;;;;4.50;4.10;;;;;;;;;;5046170;28;20207;-63
2022/06/16 02:33:01;;;;;;;4.82;3.47;;;;;;;;;;5049026;28;20203;-63
2022/06/16 02:35:35;;;;;;;4.18;3.92;;;;;;;;;;5049256;28;20211;-63
2022/06/16 02:38:08;;;;;;;4.03;3.72;;;;;;;;;;5049111;28;20231;-63
2022/06/16 02:40:41;;;;;;;3.58;3.38;;;;;;;;;;5048984;28;20223;-62
2022/06/16 02:43:19;;;;;;;4.22;4.05;;;;;;;;;;5048936;28;20207;-62
2022/06/16 02:45:51;;;;;;;3.53;3.33;;;;;;;;;;5043570;28;20212;-62
2022/06/16 02:48:22;;;;;;;3.97;3.78;;;;;;;;;;5048773;28;20214;-62
2022/06/16 02:50:55;;;;;;;3.30;3.20;;;;;;;;;;5048681;28;20242;-62
2022/06/16 02:53:29;;;;;;;3.88;3.67;;;;;;;;;;5048814;28;20223;-63
2022/06/16 02:56:00;;;;;;;4.40;3.45;;;;;;;;;;5048447;28;20239;-63
2022/06/16 02:58:28;;;;;;;3.45;3.20;;;;;;;;;;5048727;28;20666;-63
2022/06/16 03:00:56;;;;;;;3.75;3.45;;;;;;;;;;5047333;28;20230;-63
2022/06/16 03:03:24;;;;;;;3.38;3.28;;;;;;;;;;5048733;28;20595;-62
2022/06/16 03:05:53;;;;;;;3.92;3.63;;;;;;;;;;5048527;28;20203;-62
2022/06/16 03:08:21;;;;;;;3.40;3.30;;;;;;;;;;5048392;28;20211;-63
2022/06/16 03:10:51;;;;;;;3.33;3.17;;;;;;;;;;5047622;28;20211;-63
2022/06/16 03:13:18;;;;;;;3.55;3.15;;;;;;;;;;5048371;28;20208;-63
2022/06/16 03:15:45;;;;;;;3.83;3.60;;;;;;;;;;5036263;28;20668;-63
2022/06/16 03:18:12;;;;;;;3.55;3.35;;;;;;;;;;5048251;28;20258;-63
2022/06/16 03:20:39;;;;;;;3.75;3.45;;;;;;;;;;5048212;28;20231;-63
2022/06/16 03:23:08;;;;;;;3.47;3.28;;;;;;;;;;5048385;28;20204;-63
2022/06/16 03:25:35;;;;;;;3.25;3.05;;;;;;;;;;5048674;28;20207;-62
2022/06/16 03:28:02;;;;;;;4.10;3.80;;;;;;;;;;5047817;28;20282;-63
2022/06/16 03:30:29;;;;;;;3.60;3.40;;;;;;;;;;5047724;28;20216;-62
2022/06/16 03:32:56;;;;;;;3.55;3.35;;;;;;;;;;5047601;28;20584;-63
2022/06/16 03:35:23;;;;;;;3.40;3.20;;;;;;;;;;5048402;28;20208;-63
2022/06/16 03:37:50;;;;;;;3.53;3.35;;;;;;;;;;5048135;28;20195;-63
2022/06/16 03:40:20;;;;;;;3.75;3.45;;;;;;;;;;5048200;28;20231;-63
2022/06/16 03:42:48;;;;;;;3.60;3.40;;;;;;;;;;5047590;28;20678;-63
2022/06/16 03:45:16;;;;;;;3.42;3.25;;;;;;;;;;5048345;28;20203;-63
2022/06/16 03:47:43;;;;;;;3.35;3.25;;;;;;;;;;5047697;28;20206;-63
2022/06/16 03:50:12;;;;;;;3.03;2.92;;;;;;;;;;5048561;28;20200;-63
2022/06/16 03:52:39;;;;;;;3.33;3.22;;;;;;;;;;5047792;28;20223;-63
2022/06/16 03:55:07;;;;;;;3.28;3.15;;;;;;;;;;5048366;28;20310;-63
2022/06/16 03:57:35;;;;;;;3.88;3.63;;;;;;;;;;5046680;28;20250;-63
2022/06/16 04:00:02;;;;;;;3.22;3.13;;;;;;;;;;5043690;28;20216;-63
2022/06/16 04:02:31;;;;;;;4.00;3.58;;;;;;;;;;5046494;28;20574;-63
2022/06/16 04:04:57;;;;;;;3.13;3.03;;;;;;;;;;5046522;28;20303;-63
2022/06/16 04:07:24;;;;;;;3.17;3.05;;;;;;;;;;5046932;28;20207;-63
2022/06/16 04:09:51;;;;;;;3.35;3.15;;;;;;;;;;5046510;28;20585;-62
2022/06/16 04:12:18;;;;;;;3.38;3.17;;;;;;;;;;5046939;28;20212;-62
2022/06/16 04:14:46;;;;;;;3.53;3.38;;;;;;;;;;5046719;28;20219;-63
2022/06/16 04:17:13;;;;;;;3.40;3.30;;;;;;;;;;5046566;28;20561;-62
2022/06/16 04:20:11;;;;;;;3.63;3.38;;;;;;;;;;5046562;28;20235;-63
2022/06/16 04:22:29;;;;;;;5.53;3.13;;;;;;;;;;5046291;28;20207;-63
2022/06/16 04:24:56;;;;;;;3.15;3.05;;;;;;;;;;5046873;28;20195;-63
2022/06/16 04:27:23;;;;;;;3.63;3.42;;;;;;;;;;5046199;28;20196;-63
2022/06/16 04:29:51;;;;;;;3.25;3.13;;;;;;;;;;5046078;28;20204;-63
2022/06/16 04:32:18;;;;;;;3.53;3.33;;;;;;;;;;5046360;28;20693;-63
2022/06/16 04:34:45;;;;;;;3.03;2.95;;;;;;;;;;5046224;28;20207;-63
2022/06/16 04:37:13;;;;;;;3.75;3.55;;;;;;;;;;5046771;28;20200;-63
2022/06/16 04:39:40;;;;;;;4.28;3.60;;;;;;;;;;5046640;28;20208;-63
2022/06/16 04:42:07;;;;;;;4.75;3.00;;;;;;;;;;5049530;28;20200;-62
2022/06/16 04:44:34;;;;;;;3.67;3.47;;;;;;;;;;5049735;28;20215;-63
2022/06/16 04:47:03;;;;;;;3.67;3.58;;;;;;;;;;5048861;28;20299;-63
2022/06/16 04:49:30;;;;;;;3.53;3.30;;;;;;;;;;5050211;28;20721;-63
2022/06/16 04:51:57;;;;;;;3.22;3.03;;;;;;;;;;5050103;28;20624;-63
2022/06/16 04:54:24;;;;;;;3.63;3.40;;;;;;;;;;5049760;28;20293;-63
2022/06/16 04:56:52;;;;;;;3.40;3.20;;;;;;;;;;5049316;28;20227;-63
2022/06/16 04:59:19;;;;;;;3.63;3.42;;;;;;;;;;5049366;28;20208;-63
2022/06/16 05:01:46;;;;;;;3.67;3.40;;;;;;;;;;5049262;28;20232;-63
2022/06/16 05:04:14;;;;;;;4.10;3.30;;;;;;;;;;5050017;28;20204;-64
2022/06/16 05:06:41;;;;;;;3.88;3.53;;;;;;;;;;5049487;28;20670;-63
2022/06/16 05:09:08;;;;;;;2.70;2.60;;;;;;;;;;5049816;28;20211;-63
2022/06/16 05:11:35;;;;;;;3.42;3.22;;;;;;;;;;5049669;28;20196;-64
2022/06/16 05:14:03;;;;;;;3.22;3.13;;;;;;;;;;5048810;28;20203;-63
2022/06/16 05:16:30;;;;;;;3.58;3.28;;;;;;;;;;5049499;28;20208;-63
2022/06/16 05:18:57;;;;;;;3.22;3.13;;;;;;;;;;5043677;28;20818;-63
2022/06/16 05:21:26;;;;;;;3.03;2.92;;;;;;;;;;5039146;28;20323;-64
2022/06/16 05:23:53;;;;;;;3.00;2.88;;;;;;;;;;5046516;28;20277;-63
2022/06/16 05:26:20;;;;;;;3.58;3.38;;;;;;;;;;5050301;28;20211;-63
2022/06/16 05:28:47;;;;;;;2.90;2.72;;;;;;;;;;5050165;28;20265;-64
2022/06/16 05:31:14;;;;;;;3.22;3.03;;;;;;;;;;5049267;28;20203;-64
2022/06/16 05:33:41;;;;;;;3.30;3.05;;;;;;;;;;5049299;28;20208;-64
2022/06/16 05:36:09;;;;;;;3.90;2.78;;;;;;;;;;5047911;28;20204;-63
2022/06/16 05:38:38;;;;;;;2.60;2.38;;;;;;;;;;5048450;28;20210;-63
2022/06/16 05:41:07;;;;;;;2.88;2.65;;;;;;;;;;5048076;28;20227;-64
2022/06/16 05:43:34;;;;;;;2.95;2.70;;;;;;;;;;5049585;28;20307;-64
2022/06/16 05:46:01;;;;;;;2.50;2.40;;;;;;;;;;5048165;28;20261;-63
2022/06/16 05:48:28;;;;;;;2.13;2.03;;;;;;;;;;5048328;28;20627;-64
2022/06/16 05:50:55;;;;;;;1.98;1.98;;;;;;;;;;5047324;28;20195;-64
2022/06/16 05:53:23;;;;;;;2.63;2.50;;;;;;;;;;5047291;28;20627;-64
2022/06/16 05:55:51;;;;;;;2.53;2.33;;;;;;;;;;5046588;28;20246;-64
2022/06/16 05:58:18;;;;;;;2.30;2.17;;;;;;;;;;5047596;28;20590;-64
2022/06/16 06:00:45;;;;;;;2.30;2.20;;;;;;;;;;5046297;28;20228;-64
2022/06/16 06:03:12;;;;;;;2.35;2.30;;;;;;;;;;5047559;28;20670;-64
2022/06/16 06:05:39;;;;;;;2.50;2.45;;;;;;;;;;5046876;28;20199;-64
2022/06/16 06:16:28;;;;;;;2.38;2.22;;;;;;;;;;5048115;28;20206;-66
2022/06/16 06:18:55;;;;;;;2.08;2.08;;;;;;;;;;5047990;28;20207;-65
2022/06/16 06:24:03;;;;;;;2.08;1.98;;;;;;;;;;5046188;28;20241;-63
2022/06/16 06:26:32;;;;;;;2.40;2.30;;;;;;;;;;5048022;28;20672;-64
2022/06/16 06:28:59;;;;;;;2.97;2.55;;;;;;;;;;5046664;28;20211;-65
2022/06/16 06:31:26;;;;;;;1.75;1.75;;;;;;;;;;5047067;28;20210;-64
2022/06/16 06:33:53;;;;;;;1.83;1.75;;;;;;;;;;5047490;28;20211;-64
2022/06/16 06:36:20;;;;;;;1.92;1.92;;;;;;;;;;5047422;28;20215;-64
2022/06/16 06:38:47;;;;;;;2.42;2.17;;;;;;;;;;5043720;28;20199;-64
2022/06/16 06:41:14;;;;;;;2.13;1.85;;;;;;;;;;5046838;28;20211;-64
2022/06/16 06:43:43;;;;;;;1.70;1.70;;;;;;;;;;5046183;28;20203;-63
2022/06/16 06:46:11;;;;;;;3.90;2.40;;;;;;;;;;5045781;28;20261;-63
2022/06/16 06:48:38;;;;;;;2.45;2.08;;;;;;;;;;5046919;28;20211;-63
2022/06/16 06:51:05;;;;;;;2.13;1.85;;;;;;;;;;5047061;28;20214;-63
2022/06/16 06:53:32;;;;;;;2.30;2.20;;;;;;;;;;5046873;28;20227;-63
2022/06/16 06:55:59;;;;;;;2.28;2.17;;;;;;;;;;5047340;28;20235;-64
2022/06/16 06:58:26;;;;;;;1.90;1.73;;;;;;;;;;5047118;28;20277;-63
2022/06/16 07:00:54;;;;;;;1.80;1.70;;;;;;;;;;5045810;28;20285;-63
2022/06/16 07:03:22;;;;;;;2.00;1.88;;;;;;;;;;5047091;28;20211;-63
2022/06/16 07:05:49;;;;;;;1.98;1.88;;;;;;;;;;5045948;28;20740;-64
2022/06/16 07:08:16;;;;;;;3.00;2.08;;;;;;;;;;5046118;28;20649;-62
2022/06/16 07:10:43;;;;;;;5.70;1.92;;;;;;;;;;5046473;28;20253;-64
2022/06/16 07:13:10;;;;;;;4.28;2.03;;;;;;;;;;5047251;28;20609;-64
2022/06/16 07:15:38;;;;;;;1.67;1.58;;;;;;;;;;5045322;28;20218;-64
2022/06/16 07:18:06;;;;;;;2.25;2.05;;;;;;;;;;5046516;28;20326;-65
2022/06/16 07:20:33;;;;;;;1.98;1.88;;;;;;;;;;5046283;28;20579;-65
2022/06/16 07:23:01;;;;;;;2.03;1.92;;;;;;;;;;5049382;28;20400;-65
2022/06/16 07:25:36;;;;;;;1.95;1.85;;;;;;;;;;5047123;28;20211;-65
2022/06/16 07:28:03;;;;;;;1.83;1.83;;;;;;;;;;5049835;28;20213;-66
2022/06/16 07:30:30;;;;;;;4.43;1.80;;;;;;;;;;5046389;28;20721;-62
2022/06/16 07:32:57;;;;;;;1.60;1.60;;;;;;;;;;5045526;28;20211;-63
2022/06/16 07:35:26;;;;;;;1.67;1.67;;;;;;;;;;5046425;28;20254;-63
2022/06/16 07:37:53;;;;;;;1.98;1.88;;;;;;;;;;5047348;28;20218;-63
2022/06/16 07:40:20;;;;;;;1.95;1.85;;;;;;;;;;5046601;28;20215;-65
2022/06/16 07:42:49;;;;;;;3.20;1.42;;;;;;;;;;5045892;28;20203;-63
2022/06/16 07:45:16;;;;;;;1.85;1.75;;;;;;;;;;5047259;28;20200;-63
2022/06/16 07:47:43;;;;;;;1.70;1.65;;;;;;;;;;5046794;28;20552;-62
2022/06/16 07:50:12;;;;;;;5.15;1.80;;;;;;;;;;5047089;28;20211;-63
2022/06/16 07:52:40;;;;;;;2.90;1.50;;;;;;;;;;5043696;28;20219;-62
2022/06/16 07:55:08;;;;;;;1.70;1.70;;;;;;;;;;5042388;28;20223;-62
2022/06/16 07:57:40;;;;;;;1.92;1.85;;;;;;;;;;5047299;28;20195;-63
2022/06/16 08:00:08;;;;;;;5.35;2.30;;;;;;;;;;5046354;28;20211;-65
2022/06/16 08:02:35;;;;;;;1.67;1.58;;;;;;;;;;5047081;28;20273;-64
2022/06/16 08:05:02;;;;;;;2.08;1.98;;;;;;;;;;5046255;28;20269;-64
2022/06/16 08:07:29;;;;;;;2.03;1.83;;;;;;;;;;5047258;28;20212;-64
2022/06/16 08:09:57;;;;;;;2.60;1.88;;;;;;;;;;5046511;28;20207;-63
2022/06/16 08:12:26;;;;;;;1.70;1.70;;;;;;;;;;5046586;28;20211;-64
2022/06/16 08:14:53;;;;;;;1.77;1.67;;;;;;;;;;5047787;28;20200;-63
2022/06/16 08:17:22;;;;;;;2.25;1.90;;;;;;;;;;5050571;28;20226;-64
2022/06/16 08:19:49;;;;;;;3.13;1.88;;;;;;;;;;5050402;28;20265;-72
2022/06/16 08:22:16;;;;;;;1.48;1.48;;;;;;;;;;5048989;28;20270;-63
2022/06/16 08:24:43;;;;;;;5.43;1.90;;;;;;;;;;5048670;28;20981;-63
2022/06/16 08:27:11;;;;;;;1.98;1.83;;;;;;;;;;5045068;28;20222;-64
2022/06/16 08:29:39;;;;;;;2.15;1.60;;;;;;;;;;5049194;28;20208;-63
2022/06/16 08:32:08;;;;;;;1.88;1.80;;;;;;;;;;5047116;28;20204;-63
2022/06/16 08:34:35;;;;;;;2.38;1.90;;;;;;;;;;5050656;28;20211;-63
2022/06/16 08:37:02;;;;;;;1.90;1.80;;;;;;;;;;5048073;28;20208;-63
2022/06/16 08:39:30;;;;;;;2.22;1.80;;;;;;;;;;5049796;28;20225;-63
2022/06/16 08:42:00;;;;;;;2.00;1.80;;;;;;;;;;5049828;28;20224;-63
2022/06/16 08:44:32;;;;;;;1.60;1.60;;;;;;;;;;5049729;28;20207;-63
2022/06/16 08:47:03;;;;;;;2.65;1.75;;;;;;;;;;5050431;28;20243;-63
2022/06/16 08:49:34;;;;;;;2.35;1.90;;;;;;;;;;5050521;28;20211;-64
2022/06/16 08:52:05;;;;;;;1.67;1.63;;;;;;;;;;5050483;28;20304;-64
2022/06/16 08:54:39;;;;;;;3.53;1.90;;;;;;;;;;5050041;28;20223;-63
2022/06/16 08:57:09;;;;;;;2.22;2.03;;;;;;;;;;5049158;28;20230;-63
2022/06/16 08:59:43;;;;;;;2.00;1.90;;;;;;;;;;5047496;28;20204;-63
2022/06/16 09:02:14;;;;;;;1.65;1.65;;;;;;;;;;5050262;28;20231;-63
2022/06/16 09:04:43;;;;;;;1.73;1.63;;;;;;;;;;5048000;28;20208;-64
2022/06/16 09:07:21;;;;;;;2.00;1.90;;;;;;;;;;5048148;28;20208;-61
2022/06/16 09:12:47;;;;;;;2.30;2.20;;;;;;;;;;5049322;28;20277;-61
2022/06/16 09:15:22;;;;;;;3.00;1.98;;;;;;;;;;5048419;28;20203;-61
2022/06/16 09:17:58;;;;;;;2.35;2.13;;;;;;;;;;5046698;28;20249;-62
2022/06/16 09:20:29;;;;;;;2.33;2.13;;;;;;;;;;5044899;28;20200;-62
2022/06/16 09:23:06;;;;;;;2.00;1.90;;;;;;;;;;5047348;28;20227;-60
2022/06/16 09:25:40;;;;;;;2.30;2.08;;;;;;;;;;5048336;28;20331;-60
2022/06/16 09:28:09;;;;;;;4.78;2.10;;;;;;;;;;5047977;28;20199;-59
2022/06/16 09:30:40;;;;;;;1.92;1.92;;;;;;;;;;5044558;28;20212;-60
2022/06/16 09:33:08;;;;;;;2.33;2.22;;;;;;;;;;5047011;28;20204;-64
2022/06/16 09:35:37;;;;;;;2.00;2.00;;;;;;;;;;5045421;28;20204;-64
2022/06/16 09:38:08;;;;;;;1.88;1.77;;;;;;;;;;5041033;28;20200;-65
2022/06/16 09:40:36;;;;;;;2.25;2.08;;;;;;;;;;5048529;28;20299;-64
2022/06/16 09:43:06;;;;;;;2.10;2.00;;;;;;;;;;5048823;28;20228;-63
2022/06/16 09:45:34;;;;;;;2.33;2.22;;;;;;;;;;5049320;28;20207;-65
2022/06/16 09:48:06;;;;;;;2.55;2.33;;;;;;;;;;5048066;28;20212;-64
2022/06/16 09:50:38;;;;;;;2.10;2.00;;;;;;;;;;5048491;28;20216;-64
2022/06/16 09:53:06;;;;;;;3.10;2.10;;;;;;;;;;5048509;28;20227;-64
2022/06/16 09:55:36;;;;;;;2.13;2.00;;;;;;;;;;5048622;28;20247;-64
2022/06/16 09:58:05;;;;;;;1.83;1.77;;;;;;;;;;5048765;28;20277;-64
2022/06/16 10:00:35;;;;;;;2.00;2.00;;;;;;;;;;5047241;28;20219;-64
2022/06/16 10:03:13;;;;;;;2.13;2.00;;;;;;;;;;5044780;28;20227;-63
2022/06/16 10:05:44;;;;;;;1.77;1.77;;;;;;;;;;5047344;28;20928;-64
2022/06/16 10:08:16;;;;;;;2.15;2.10;;;;;;;;;;5043237;28;20208;-64
2022/06/16 10:10:47;;;;;;;3.28;2.13;;;;;;;;;;5047207;28;20219;-63
2022/06/16 10:13:18;;;;;;;2.38;2.17;;;;;;;;;;5047855;28;20196;-62
2022/06/16 10:15:48;;;;;;;2.33;2.22;;;;;;;;;;5048659;28;20199;-63
2022/06/16 10:18:18;;;;;;;2.67;1.80;;;;;;;;;;5048405;28;20207;-63
2022/06/16 10:20:46;;;;;;;1.85;1.75;;;;;;;;;;5048226;28;20227;-63
2022/06/16 10:23:16;;;;;;;1.83;1.73;;;;;;;;;;5046823;28;20281;-63
2022/06/16 10:25:46;;;;;;;1.85;1.75;;;;;;;;;;5047780;28;20255;-62
2022/06/16 10:28:18;;;;;;;2.08;1.90;;;;;;;;;;5048182;28;20204;-64
2022/06/16 10:30:45;;;;;;;2.00;1.90;;;;;;;;;;5047441;28;20261;-63
2022/06/16 10:33:18;;;;;;;2.33;1.92;;;;;;;;;;5047808;28;20208;-64
2022/06/16 10:35:49;;;;;;;2.28;2.08;;;;;;;;;;5047571;28;20204;-65
2022/06/16 10:38:21;;;;;;;2.03;1.98;;;;;;;;;;5047894;28;20235;-62
2022/06/16 10:40:48;;;;;;;1.60;1.58;;;;;;;;;;5048348;28;20207;-62
2022/06/16 10:43:16;;;;;;;2.47;2.00;;;;;;;;;;5047679;28;20277;-62
2022/06/16 10:45:43;;;;;;;1.90;1.85;;;;;;;;;;5047569;28;20238;-62
2022/06/16 10:48:19;;;;;;;2.00;1.90;;;;;;;;;;5047861;28;20553;-62
2022/06/16 10:50:50;;;;;;;2.63;2.42;;;;;;;;;;5046199;28;20206;-65
2022/06/16 10:53:21;;;;;;;2.20;2.08;;;;;;;;;;5047805;28;20216;-64
2022/06/16 10:55:49;;;;;;;2.28;2.17;;;;;;;;;;5048066;28;20892;-64
2022/06/16 10:58:21;;;;;;;3.10;2.25;;;;;;;;;;5047926;28;20212;-65
2022/06/16 11:01:01;;;;;;;1.73;1.60;;;;;;;;;;5045715;28;20211;-64
2022/06/16 11:03:28;;;;;;;1.60;1.60;;;;;;;;;;5047295;28;20239;-62
2022/06/16 11:05:57;;;;;;;1.50;1.50;;;;;;;;;;5045772;28;20207;-65
2022/06/16 11:08:26;;;;;;;1.23;1.23;;;;;;;;;;5045459;28;20855;-63
2022/06/16 11:10:56;;;;;;;1.00;0.98;;;;;;;;;;5046915;28;20533;-63
2022/06/16 11:13:27;;;;;;;0.90;0.90;;;;;;;;;;5046434;28;20968;-64
2022/06/16 11:15:54;;;;;;;1.48;1.48;;;;;;;;;;5044094;28;20294;-63
2022/06/16 11:18:23;;;;;;;1.60;1.35;;;;;;;;;;5047418;28;20204;-64
2022/06/16 11:20:51;;;;;;;1.85;1.75;;;;;;;;;;5046981;28;20204;-62
2022/06/16 11:23:28;;;;;;;2.40;1.70;;;;;;;;;;5044573;28;20235;-65
2022/06/16 11:25:57;;;;;;;2.08;1.80;;;;;;;;;;5046524;28;20195;-65
2022/06/16 11:28:25;;;;;;;2.20;2.20;;;;;;;;;;5043805;28;20208;-62
2022/06/16 11:30:57;;;;;;;1.60;1.60;;;;;;;;;;5046719;28;20203;-62
2022/06/16 11:36:15;;;;;;;2.33;2.22;;;;;;;;;;5045496;28;20210;-64
2022/06/16 11:38:47;;;;;;;1.98;1.98;;;;;;;;;;5048172;28;20258;-63
2022/06/16 11:41:15;;;;;;;2.00;2.00;;;;;;;;;;5048268;28;20931;-63
2022/06/16 11:43:49;;;;;;;2.58;1.95;;;;;;;;;;5037882;28;20236;-62
2022/06/16 11:46:21;;;;;;;2.00;1.85;;;;;;;;;;5038648;28;20215;-65
2022/06/16 11:48:57;;;;;;;1.92;1.88;;;;;;;;;;5025487;28;20224;-63
2022/06/16 11:51:27;;;;;;;2.05;1.95;;;;;;;;;;5040916;28;20230;-64
2022/06/16 11:54:04;;;;;;;1.83;1.73;;;;;;;;;;5047391;28;20216;-62
2022/06/16 11:56:38;;;;;;;1.58;1.48;;;;;;;;;;5046142;28;20241;-64
2022/06/16 11:59:26;;;;;;;1.13;1.13;;;;;;;;;;5046601;28;20199;-63
2022/06/16 12:01:56;;;;;;;1.20;1.20;;;;;;;;;;5040068;28;20459;-64
2022/06/16 12:04:42;;;;;;;1.20;1.17;;;;;;;;;;5045043;28;20293;-63
2022/06/16 12:07:30;;;;;;;1.08;1.08;;;;;;;;;;5032186;28;20239;-63
2022/06/16 12:10:03;;;;;;;0.93;0.93;;;;;;;;;;5033308;28;20203;-63
2022/06/16 12:12:33;;;;;;;1.20;1.20;;;;;;;;;;5036157;28;20699;-64
2022/06/16 12:15:03;;;;;;;1.10;1.10;;;;;;;;;;5039445;28;20208;-63
2022/06/16 12:17:35;;;;;;;1.75;1.40;;;;;;;;;;5042463;28;20265;-63
2022/06/16 12:20:07;;;;;;;1.20;1.13;;;;;;;;;;5047015;28;20228;-66
2022/06/16 12:22:38;;;;;;;1.33;1.33;;;;;;;;;;5044258;28;20235;-66
2022/06/16 12:25:10;;;;;;;1.30;1.30;;;;;;;;;;5043138;28;20355;-66
2022/06/16 12:27:42;;;;;;;1.63;1.63;;;;;;;;;;5045447;28;20215;-66
2022/06/16 12:30:11;;;;;;;1.50;1.40;;;;;;;;;;5040425;28;20216;-66
2022/06/16 12:32:42;;;;;;;1.15;1.15;;;;;;;;;;5037184;28;20214;-66
2022/06/16 12:35:14;;;;;;;1.10;1.10;;;;;;;;;;5045916;28;20219;-66
2022/06/16 12:37:44;;;;;;;1.45;1.45;;;;;;;;;;5035817;28;20199;-66
2022/06/16 12:40:14;;;;;;;1.25;1.15;;;;;;;;;;5043465;28;20208;-63
2022/06/16 12:42:44;;;;;;;1.20;1.20;;;;;;;;;;5046425;28;20231;-65
2022/06/16 12:45:13;;;;;;;1.10;1.10;;;;;;;;;;5046083;28;20231;-65
2022/06/16 12:47:44;;;;;;;1.40;1.30;;;;;;;;;;5046635;28;20211;-66
2022/06/16 12:50:16;;;;;;;1.20;1.20;;;;;;;;;;5046562;28;20211;-66
2022/06/16 12:52:46;;;;;;;2.60;1.20;;;;;;;;;;5046050;28;20305;-67
2022/06/16 12:55:16;;;;;;;1.00;1.00;;;;;;;;;;5002563;28;1123527;-67
2022/06/16 12:57:45;;;;;;;1.25;1.17;;;;;;;;;;5043859;28;20548;-68
2022/06/16 13:00:15;;;;;;;1.20;1.20;;;;;;;;;;5046629;28;20678;-67
2022/06/16 13:02:45;;;;;;;1.40;1.30;;;;;;;;;;5046741;28;20740;-67
2022/06/16 13:05:12;;;;;;;1.10;1.10;;;;;;;;;;5046931;28;20242;-67
2022/06/16 13:07:42;;;;;;;1.40;1.30;;;;;;;;;;5047252;28;20216;-67
2022/06/16 13:10:11;;;;;;;2.67;1.27;;;;;;;;;;5047236;28;20688;-67
2022/06/16 13:12:43;;;;;;;1.50;1.50;;;;;;;;;;5045221;28;20231;-67
2022/06/16 13:15:12;;;;;;;1.75;1.60;;;;;;;;;;5043086;28;20682;-67
2022/06/16 13:17:46;;;;;;;1.35;1.25;;;;;;;;;;5046653;28;20239;-67
2022/06/16 13:20:16;;;;;;;1.30;1.15;;;;;;;;;;5035056;28;20400;-67
2022/06/16 13:22:44;;;;;;;1.20;1.20;;;;;;;;;;5043374;28;20232;-67
2022/06/16 13:25:13;;;;;;;1.02;1.02;;;;;;;;;;5044254;28;20645;-68
2022/06/16 13:27:43;;;;;;;1.23;1.20;;;;;;;;;;5042462;28;20211;-67
2022/06/16 13:30:20;;;;;;;1.20;1.20;;;;;;;;;;5029896;28;20970;-67
2022/06/16 13:33:02;;;;;;;1.10;1.10;;;;;;;;;;5044548;28;20568;-67
2022/06/16 13:35:32;;;;;;;0.90;0.90;;;;;;;;;;5029623;28;20208;-68
2022/06/16 13:38:18;;;;;;;1.20;1.20;;;;;;;;;;5026335;28;20411;-68
2022/06/16 13:40:45;;;;;;;1.33;1.05;;;;;;;;;;5046167;28;20207;-68
2022/06/16 13:43:15;;;;;;;1.52;1.00;;;;;;;;;;5045292;28;20224;-68
2022/06/16 13:46:00;;;;;;;1.25;1.25;;;;;;;;;;5046302;28;20207;-67
2022/06/16 13:48:37;;;;;;;1.10;1.10;;;;;;;;;;5043037;28;20211;-67
2022/06/16 13:51:05;;;;;;;1.00;1.00;;;;;;;;;;5046187;28;20204;-67
2022/06/16 13:53:44;;;;;;;1.00;1.00;;;;;;;;;;5045682;28;20714;-68
2022/06/16 13:56:13;;;;;;;0.98;0.98;;;;;;;;;;5043109;28;20318;-68
2022/06/16 13:59:01;;;;;;;0.63;0.63;;;;;;;;;;5046797;28;20211;-68
2022/06/16 14:01:30;;;;;;;1.10;1.10;;;;;;;;;;5046165;28;20215;-66
2022/06/16 14:04:01;;;;;;;1.00;1.00;;;;;;;;;;5038697;28;20775;-66
2022/06/16 14:06:31;;;;;;;1.10;1.10;;;;;;;;;;5046370;28;20215;-66
2022/06/16 14:09:01;;;;;;;1.05;0.90;;;;;;;;;;5045207;28;20204;-67
2022/06/16 14:11:29;;;;;;;0.85;0.85;;;;;;;;;;5045434;28;20208;-67
2022/06/16 14:14:14;;;;;;;0.70;0.70;;;;;;;;;;5044250;28;20991;-66
2022/06/16 14:16:43;;;;;;;1.75;0.90;;;;;;;;;;5043730;28;20207;-66
2022/06/16 14:19:17;;;;;;;0.93;0.90;;;;;;;;;;5043264;28;20215;-65
2022/06/16 14:21:47;;;;;;;1.10;1.08;;;;;;;;;;5043391;28;20215;-66
2022/06/16 14:24:21;;;;;;;1.15;1.15;;;;;;;;;;5045943;28;20342;-65
2022/06/16 14:26:48;;;;;;;1.17;1.17;;;;;;;;;;5045290;28;20203;-65
2022/06/16 14:29:17;;;;;;;1.00;0.90;;;;;;;;;;5045382;28;20219;-64
2022/06/16 14:31:48;;;;;;;2.13;0.80;;;;;;;;;;5045526;28;20756;-65
2022/06/16 14:34:20;;;;;;;3.22;1.00;;;;;;;;;;5043436;28;20652;-65
2022/06/16 14:36:51;;;;;;;0.80;0.80;;;;;;;;;;5036163;28;20673;-64
2022/06/16 14:39:21;;;;;;;1.00;1.00;;;;;;;;;;5045024;28;20243;-66
2022/06/16 14:41:49;;;;;;;0.82;0.82;;;;;;;;;;5042867;28;20215;-65
2022/06/16 14:44:19;;;;;;;0.88;0.88;;;;;;;;;;5031346;28;20235;-65
2022/06/16 14:46:54;;;;;;;1.73;1.05;;;;;;;;;;5045030;28;20624;-63
2022/06/16 14:49:25;;;;;;;1.10;1.10;;;;;;;;;;5044526;28;20947;-63
2022/06/16 14:51:52;;;;;;;0.93;0.93;;;;;;;;;;5044508;28;20615;-63
2022/06/16 14:54:22;;;;;;;0.85;0.80;;;;;;;;;;5044194;28;20231;-63
2022/06/16 14:56:51;;;;;;;0.80;0.80;;;;;;;;;;5024920;28;20240;-63
2022/06/16 14:59:19;;;;;;;1.38;1.00;;;;;;;;;;5039672;28;20214;-69
2022/06/16 15:01:48;;;;;;;0.88;0.88;;;;;;;;;;5039942;28;20300;-69
2022/06/16 15:04:19;;;;;;;3.08;1.00;;;;;;;;;;5039501;28;20235;-69
2022/06/16 15:06:48;;;;;;;0.80;0.80;;;;;;;;;;5044878;28;20238;-70
2022/06/16 15:09:17;;;;;;;1.10;1.10;;;;;;;;;;5044463;28;20212;-70
2022/06/16 15:11:45;;;;;;;1.52;1.42;;;;;;;;;;5038634;28;20212;-70
2022/06/16 15:14:13;;;;;;;1.02;1.02;;;;;;;;;;5044891;28;20294;-70
2022/06/16 15:19:30;;;;;;;1.20;1.10;;;;;;;;;;5044169;28;20210;-69
2022/06/16 15:21:58;;;;;;;0.80;0.80;;;;;;;;;;5037883;28;20208;-67
2022/06/16 15:24:35;;;;;;;1.00;1.00;;;;;;;;;;5044262;28;20615;-69